createdAt,value
2022-11-17T00:04:29.846Z,2.30
2022-11-17T00:09:32.470Z,2.10
2022-11-17T00:14:37.481Z,2.20
2022-11-17T00:19:45.356Z,2.20
2022-11-17T00:24:48.882Z,2.00
2022-11-17T00:30:26.996Z,1.40
2022-11-17T00:35:29.531Z,2.10
2022-11-17T00:40:32.083Z,2.50
2022-11-17T00:45:34.689Z,2.20
2022-11-17T00:50:37.292Z,2.30
2022-11-17T00:55:42.555Z,2.20
2022-11-17T01:00:45.133Z,2.00
2022-11-17T01:05:47.719Z,2.10
2022-11-17T01:10:50.353Z,1.90
2022-11-17T01:15:52.986Z,1.10
2022-11-17T01:20:55.543Z,2.00
2022-11-17T01:26:02.413Z,1.80
2022-11-17T01:31:08.637Z,1.60
2022-11-17T01:41:32.845Z,2.00
2022-11-17T01:46:38.332Z,2.40
2022-11-17T01:51:50.713Z,2.00
2022-11-17T01:56:58.328Z,1.50
2022-11-17T02:02:01.215Z,2.40
2022-11-17T02:07:09.698Z,2.10
2022-11-17T02:12:14.155Z,2.00
2022-11-17T02:17:18.010Z,1.30
2022-11-17T02:23:30.626Z,1.70
2022-11-17T02:28:47.592Z,2.30
2022-11-17T02:33:50.434Z,2.30
2022-11-17T02:39:00.908Z,2.10
2022-11-17T02:44:12.836Z,1.80
2022-11-17T02:49:18.301Z,1.70
2022-11-17T02:54:23.185Z,2.40
2022-11-17T02:59:31.191Z,2.10
2022-11-17T03:04:46.871Z,2.60
2022-11-17T03:10:03.781Z,2.90
2022-11-17T03:20:17.348Z,2.60
2022-11-17T03:25:23.513Z,1.80
2022-11-17T03:30:30.863Z,1.90
2022-11-17T03:35:43.936Z,2.30
2022-11-17T03:40:52.877Z,2.00
2022-11-17T03:45:58.892Z,1.60
2022-11-17T03:51:09.215Z,2.40
2022-11-17T03:56:16.682Z,2.10
2022-11-17T04:01:21.207Z,2.50
2022-11-17T04:06:23.906Z,2.20
2022-11-17T04:11:29.403Z,2.20
2022-11-17T04:16:31.973Z,2.70
2022-11-17T04:21:34.731Z,3.20
2022-11-17T04:26:40.230Z,3.00
2022-11-17T04:31:42.792Z,3.30
2022-11-17T04:36:45.548Z,3.00
2022-11-17T04:41:52.074Z,2.40
2022-11-17T04:46:55.786Z,1.80
2022-11-17T04:52:01.156Z,2.80
2022-11-17T04:57:03.778Z,2.30
2022-11-17T05:02:06.620Z,2.50
2022-11-17T05:07:09.456Z,2.10
2022-11-17T05:12:15.052Z,2.40
2022-11-17T05:17:17.666Z,2.90
2022-11-17T05:22:25.915Z,2.40
2022-11-17T05:27:28.639Z,3.20
2022-11-17T05:32:31.436Z,2.10
2022-11-17T05:37:33.976Z,1.60
2022-11-17T05:42:36.595Z,3.30
2022-11-17T05:47:39.534Z,2.50
2022-11-17T05:52:42.073Z,2.40
2022-11-17T05:57:45.088Z,2.40
2022-11-17T06:02:52.864Z,3.30
2022-11-17T06:07:57.876Z,3.50
2022-11-17T06:13:00.524Z,1.80
2022-11-17T06:18:08.007Z,3.90
2022-11-17T06:23:12.056Z,3.30
2022-11-17T06:28:19.411Z,2.80
2022-11-17T06:33:22.162Z,3.70
2022-11-17T06:38:24.762Z,4.10
2022-11-17T06:43:27.327Z,3.60
2022-11-17T06:48:30.270Z,2.60
2022-11-17T06:53:34.296Z,3.00
2022-11-17T06:58:39.565Z,3.20
2022-11-17T07:03:43.283Z,4.00
2022-11-17T07:08:46.203Z,3.00
2022-11-17T07:13:48.771Z,3.00
2022-11-17T07:18:53.001Z,2.60
2022-11-17T07:23:55.628Z,4.30
2022-11-17T07:28:58.332Z,4.00
2022-11-17T07:34:00.846Z,2.40
2022-11-17T07:39:05.336Z,3.70
2022-11-17T07:44:07.910Z,4.90
2022-11-17T07:49:10.675Z,3.20
2022-11-17T07:54:13.218Z,3.60
2022-11-17T07:59:21.038Z,3.90
2022-11-17T08:04:24.021Z,2.60
2022-11-17T08:09:26.544Z,3.30
2022-11-17T08:14:29.746Z,4.00
2022-11-17T08:19:32.509Z,3.10
2022-11-17T08:24:35.221Z,5.00
2022-11-17T08:29:38.158Z,2.90
2022-11-17T08:34:41.127Z,4.80
2022-11-17T08:39:43.684Z,4.00
2022-11-17T08:44:46.530Z,4.20
2022-11-17T08:49:49.131Z,2.70
2022-11-17T08:54:52.436Z,3.00
2022-11-17T08:59:55.097Z,5.00
2022-11-17T09:04:57.619Z,3.50
2022-11-17T09:10:01.115Z,3.70
2022-11-17T09:15:05.617Z,4.10
2022-11-17T09:20:08.991Z,2.50
2022-11-17T09:25:13.672Z,3.40
2022-11-17T09:30:21.780Z,3.70
2022-11-17T09:35:24.403Z,3.70
2022-11-17T09:40:34.648Z,4.10
2022-11-17T09:45:40.297Z,2.70
2022-11-17T09:50:45.157Z,3.70
2022-11-17T09:55:54.263Z,4.20
2022-11-17T10:00:57.664Z,3.30
2022-11-17T10:06:05.867Z,3.50
2022-11-17T10:11:32.925Z,3.60
2022-11-17T10:16:40.794Z,2.40
2022-11-17T10:21:44.480Z,3.60
2022-11-17T10:26:49.317Z,3.00
2022-11-17T10:31:52.070Z,3.40
2022-11-17T10:36:54.775Z,3.00
2022-11-17T10:41:57.453Z,3.40
2022-11-17T10:47:04.146Z,3.30
2022-11-17T10:52:08.758Z,3.60
2022-11-17T10:57:28.894Z,3.40
2022-11-17T11:02:35.613Z,3.70
2022-11-17T11:07:39.324Z,3.40
2022-11-17T11:12:45.587Z,3.40
2022-11-17T11:18:13.945Z,3.70
2022-11-17T11:23:20.542Z,3.90
2022-11-17T11:28:27.467Z,3.00
2022-11-17T11:33:30.984Z,3.10
2022-11-17T11:38:37.418Z,3.30
2022-11-17T11:43:43.227Z,2.70
2022-11-17T11:48:48.121Z,3.20
2022-11-17T11:54:01.029Z,3.00
2022-11-17T11:59:03.600Z,2.80
2022-11-17T12:04:19.917Z,2.50
2022-11-17T12:09:26.299Z,3.00
2022-11-17T12:15:03.665Z,2.80
2022-11-17T12:20:29.124Z,1.40
2022-11-17T12:25:36.037Z,2.30
2022-11-17T12:30:43.512Z,2.50
2022-11-17T12:35:47.242Z,2.80
2022-11-17T12:40:51.464Z,1.90
2022-11-17T12:46:03.986Z,1.90
2022-11-17T12:51:11.583Z,4.10
2022-11-17T12:56:20.045Z,7.10
2022-11-17T13:01:27.614Z,3.80
2022-11-17T13:06:37.500Z,6.40
2022-11-17T13:11:40.145Z,4.40
2022-11-17T13:16:46.835Z,4.10
2022-11-17T13:21:49.417Z,2.70
2022-11-17T13:26:59.422Z,4.30
2022-11-17T13:32:11.158Z,4.00
2022-11-17T13:37:19.218Z,2.80
2022-11-17T13:42:25.192Z,2.70
2022-11-17T13:47:47.633Z,4.40
2022-11-17T13:53:10.424Z,4.90
2022-11-17T13:58:23.332Z,3.90
2022-11-17T14:03:33.205Z,3.00
2022-11-17T14:08:37.654Z,4.70
2022-11-17T14:13:41.278Z,4.90
2022-11-17T14:18:55.840Z,4.50
2022-11-17T14:24:04.540Z,4.30
2022-11-17T14:29:13.555Z,3.50
2022-11-17T14:34:16.782Z,3.30
2022-11-17T14:39:20.007Z,5.60
2022-11-17T14:44:23.233Z,12.00
2022-11-17T14:49:25.789Z,11.60
2022-11-17T14:54:28.971Z,10.00
2022-11-17T14:59:31.555Z,8.20
2022-11-17T15:05:07.245Z,7.00
2022-11-17T15:10:10.289Z,7.90
2022-11-17T15:15:12.957Z,7.60
2022-11-17T15:20:15.675Z,8.10
2022-11-17T15:25:18.297Z,8.90
2022-11-17T15:30:20.960Z,7.30
2022-11-17T15:35:24.440Z,7.70
2022-11-17T15:40:26.999Z,7.60
2022-11-17T15:45:29.699Z,7.00
2022-11-17T15:50:32.209Z,8.70
2022-11-17T15:55:35.271Z,9.40
2022-11-17T16:07:18.342Z,8.70
2022-11-17T16:12:20.923Z,6.60
2022-11-17T16:17:23.539Z,7.00
2022-11-17T16:22:27.011Z,7.20
2022-11-17T16:27:29.579Z,6.10
2022-11-17T16:32:32.189Z,5.30
2022-11-17T16:37:34.722Z,4.60
2022-11-17T16:42:37.269Z,5.50
2022-11-17T16:47:39.769Z,5.20
2022-11-17T16:52:43.265Z,5.80
2022-11-17T16:57:45.848Z,5.90
2022-11-17T17:02:50.019Z,6.20
2022-11-17T17:07:52.684Z,7.00
2022-11-17T17:12:55.264Z,9.70
2022-11-17T17:17:57.829Z,11.50
2022-11-17T17:23:03.201Z,9.00
2022-11-17T17:28:05.990Z,9.60
2022-11-17T17:33:08.517Z,10.90
2022-11-17T17:38:11.081Z,11.20
2022-11-17T17:43:13.667Z,9.60
2022-11-17T17:48:16.232Z,9.10
2022-11-17T17:53:18.781Z,7.20
2022-11-17T17:58:21.331Z,7.00
2022-11-17T18:03:24.026Z,8.80
2022-11-17T18:08:26.796Z,8.30
2022-11-17T18:13:33.154Z,8.20
2022-11-17T18:18:36.618Z,8.00
2022-11-17T18:23:41.966Z,7.40
2022-11-17T18:28:51.666Z,8.10
2022-11-17T18:33:58.164Z,7.60
2022-11-17T18:39:00.745Z,7.00
2022-11-17T18:44:03.510Z,8.40
2022-11-17T18:49:06.052Z,6.70
2022-11-17T18:54:12.047Z,7.80
2022-11-17T18:59:15.308Z,7.20
2022-11-17T19:04:18.240Z,8.50
2022-11-17T19:09:20.920Z,7.30
2022-11-17T19:14:23.437Z,8.20
2022-11-17T19:19:26.465Z,6.70
2022-11-17T19:24:29.019Z,6.50
2022-11-17T19:29:31.715Z,7.30
2022-11-17T19:34:34.343Z,7.60
2022-11-17T19:39:36.991Z,6.40
2022-11-17T19:44:39.536Z,7.20
2022-11-17T19:49:43.154Z,3.20
2022-11-17T19:54:45.674Z,7.10
2022-11-17T19:59:48.239Z,8.20
2022-11-17T20:04:50.751Z,5.90
2022-11-17T20:09:53.330Z,6.00
2022-11-17T20:14:55.871Z,7.90
2022-11-17T20:19:58.431Z,7.60
2022-11-17T20:25:03.650Z,8.70
2022-11-17T20:30:10.949Z,3.50
2022-11-17T20:35:17.447Z,5.10
2022-11-17T20:40:19.991Z,4.40
2022-11-17T20:45:23.093Z,6.70
2022-11-17T20:50:25.955Z,6.00
2022-11-17T20:55:28.740Z,6.00
2022-11-17T21:00:31.281Z,8.30
2022-11-17T21:05:33.943Z,6.10
2022-11-17T21:10:36.983Z,3.00
2022-11-17T21:15:39.704Z,5.00
2022-11-17T21:20:44.489Z,4.20
2022-11-17T21:25:49.249Z,4.80
2022-11-17T21:30:51.892Z,4.10
2022-11-17T21:36:00.382Z,5.60
2022-11-17T21:41:06.045Z,4.70
2022-11-17T21:46:12.479Z,5.80
2022-11-17T21:56:17.568Z,9.20
2022-11-17T22:01:20.163Z,7.90
2022-11-17T22:06:24.360Z,6.40
2022-11-17T22:11:32.319Z,4.80
2022-11-17T22:16:37.044Z,3.30
2022-11-17T22:21:40.491Z,5.00
2022-11-17T22:26:46.557Z,4.80
2022-11-17T22:31:50.515Z,5.50
2022-11-17T22:36:53.115Z,6.70
2022-11-17T22:41:55.674Z,8.00
2022-11-17T22:46:58.172Z,4.50
2022-11-17T22:52:03.634Z,4.40
2022-11-17T22:57:06.193Z,4.70
2022-11-17T23:02:08.787Z,4.90
2022-11-17T23:07:11.479Z,4.70
2022-11-17T23:12:14.466Z,2.80
2022-11-17T23:17:19.525Z,4.80
2022-11-17T23:22:25.313Z,4.40
2022-11-17T23:27:27.859Z,4.60
2022-11-17T23:32:30.455Z,3.50
2022-11-17T23:37:33.004Z,4.00
2022-11-17T23:42:41.629Z,4.80
2022-11-17T23:47:45.615Z,2.90
2022-11-17T23:52:48.170Z,4.80
2022-11-17T23:57:50.690Z,3.40
